Airfield :
LOGIN :

Register | Disclaimer

   EN    FR    IT 

 










Legend :    VFR   Marginal VFR   IFR   Intensive IFR   Very Intensive IFR
Visi :
Ceiling :
>= 8 km
>= 3000ft
5 to 8 km
1000 to 3000 ft
1500m to 5 km
500 to 1000 ft
800 to 1500m
200 to 500 ft
< 800m
< 200 ft
Symbols :   Thunderstorms  Fog  Heavy snow  Heavy precipitations  Wind > 20 kt
SIGMETs :     Misc.  Thunderstorms  Icing  Turbulence  Mountain Waves  Volcanic Ashes







- Airport Elevation : 1768 ft


LEHC - Huesca Pirineos

CURRENT METAR :
  • 222200Z AUTO 25010KT 9999 NCD 20/12 Q1018

EXPIRED METARs :
  • 222130Z AUTO 26011KT 9999 NCD 21/12 Q1017
  • 222100Z AUTO 26013KT 9999 NCD 22/12 Q1017
  • 222030Z AUTO 26010KT 9999 NCD 22/13 Q1017
  • 222000Z AUTO 25009KT 210V270 9999 NCD 23/12 Q1016
  • 221930Z AUTO 25009KT 9999 NCD 25/12 Q1016

TAF TAF LEHC
Valid from the 22 at 09:00 until the 23 at 09:00 UTC


220800Z 2209/2309 28009KT 9999 FEW040 TX33/2214Z TN17/2305Z
TEMPO 2214/2220 28016G26KT
BECMG 2222/2224 10007KT
No reported NOTAMs for that airfield.



MET'MAP, your aeronautical weather chart ! - Copyright ORBIFLY December 2007 - Disclaimer

ORBIFLY MET'MAP TEAM :

Programming & Development : Alexandra Zaïnal
Concept & Development : Baudouin d'Aumeries
Co-Development & Prog : Marc-Olivier Méhu
Technical & hardware support : Manuel Goepfert

Contact : metmap@orbifly.com




SOURCES & CREDITS :

   NOAA